sensor_id;sensor_type;location;lat;lon;timestamp;P1;durP1;ratioP1;P2;durP2;ratioP2
78027;SDS011;67235;45.638;11.714;2023-04-05T00:01:13;14.27;;;6.23;;
78027;SDS011;67235;45.638;11.714;2023-04-05T00:03:40;11.98;;;5.38;;
78027;SDS011;67235;45.638;11.714;2023-04-05T00:06:07;12.23;;;5.10;;
78027;SDS011;67235;45.638;11.714;2023-04-05T00:08:33;13.45;;;4.57;;
78027;SDS011;67235;45.638;11.714;2023-04-05T00:10:58;12.13;;;4.78;;
78027;SDS011;67235;45.638;11.714;2023-04-05T00:13:24;10.40;;;4.78;;
78027;SDS011;67235;45.638;11.714;2023-04-05T00:15:50;10.18;;;4.40;;
78027;SDS011;67235;45.638;11.714;2023-04-05T00:18:16;9.13;;;4.45;;
78027;SDS011;67235;45.638;11.714;2023-04-05T00:20:51;10.27;;;4.20;;
78027;SDS011;67235;45.638;11.714;2023-04-05T00:23:18;8.95;;;4.47;;
78027;SDS011;67235;45.638;11.714;2023-04-05T00:25:47;9.50;;;4.20;;
78027;SDS011;67235;45.638;11.714;2023-04-05T00:28:13;10.35;;;4.05;;
78027;SDS011;67235;45.638;11.714;2023-04-05T00:30:38;13.00;;;4.43;;
78027;SDS011;67235;45.638;11.714;2023-04-05T00:33:04;10.50;;;4.40;;
78027;SDS011;67235;45.638;11.714;2023-04-05T00:35:30;11.05;;;4.05;;
78027;SDS011;67235;45.638;11.714;2023-04-05T00:37:56;8.20;;;4.05;;
78027;SDS011;67235;45.638;11.714;2023-04-05T00:40:22;10.20;;;4.47;;
78027;SDS011;67235;45.638;11.714;2023-04-05T00:42:48;10.85;;;4.07;;
78027;SDS011;67235;45.638;11.714;2023-04-05T00:45:14;9.27;;;3.90;;
78027;SDS011;67235;45.638;11.714;2023-04-05T00:47:40;8.70;;;3.93;;
78027;SDS011;67235;45.638;11.714;2023-04-05T00:50:08;8.60;;;3.50;;
78027;SDS011;67235;45.638;11.714;2023-04-05T00:52:35;8.00;;;3.60;;
78027;SDS011;67235;45.638;11.714;2023-04-05T00:55:05;7.55;;;3.45;;
78027;SDS011;67235;45.638;11.714;2023-04-05T00:57:32;9.02;;;3.55;;
78027;SDS011;67235;45.638;11.714;2023-04-05T01:00:04;8.17;;;3.53;;
78027;SDS011;67235;45.638;11.714;2023-04-05T01:02:40;9.00;;;3.88;;
78027;SDS011;67235;45.638;11.714;2023-04-05T01:05:17;7.93;;;3.42;;
78027;SDS011;67235;45.638;11.714;2023-04-05T01:08:05;12.15;;;3.47;;
78027;SDS011;67235;45.638;11.714;2023-04-05T01:10:38;8.85;;;3.25;;
78027;SDS011;67235;45.638;11.714;2023-04-05T01:13:08;7.80;;;3.00;;
78027;SDS011;67235;45.638;11.714;2023-04-05T01:15:34;8.38;;;2.88;;
78027;SDS011;67235;45.638;11.714;2023-04-05T01:18:00;7.93;;;3.50;;
78027;SDS011;67235;45.638;11.714;2023-04-05T01:20:27;9.30;;;3.43;;
78027;SDS011;67235;45.638;11.714;2023-04-05T01:23:16;7.97;;;3.30;;
78027;SDS011;67235;45.638;11.714;2023-04-05T01:31:22;6.90;;;3.03;;
78027;SDS011;67235;45.638;11.714;2023-04-05T01:39:06;6.72;;;3.17;;
78027;SDS011;67235;45.638;11.714;2023-04-05T01:41:37;6.93;;;3.00;;
78027;SDS011;67235;45.638;11.714;2023-04-05T01:44:04;6.43;;;2.77;;
78027;SDS011;67235;45.638;11.714;2023-04-05T01:46:29;6.53;;;3.05;;
78027;SDS011;67235;45.638;11.714;2023-04-05T01:48:55;8.00;;;3.17;;
78027;SDS011;67235;45.638;11.714;2023-04-05T01:51:21;7.30;;;3.00;;
78027;SDS011;67235;45.638;11.714;2023-04-05T01:53:47;9.38;;;3.10;;
78027;SDS011;67235;45.638;11.714;2023-04-05T01:56:13;12.38;;;3.65;;
78027;SDS011;67235;45.638;11.714;2023-04-05T01:58:39;7.67;;;2.97;;
78027;SDS011;67235;45.638;11.714;2023-04-05T02:01:05;7.90;;;3.13;;
78027;SDS011;67235;45.638;11.714;2023-04-05T02:03:30;7.30;;;3.00;;
78027;SDS011;67235;45.638;11.714;2023-04-05T02:05:56;12.77;;;3.10;;
78027;SDS011;67235;45.638;11.714;2023-04-05T02:08:22;7.45;;;3.50;;
78027;SDS011;67235;45.638;11.714;2023-04-05T02:10:48;7.27;;;3.03;;
78027;SDS011;67235;45.638;11.714;2023-04-05T02:13:16;7.18;;;3.20;;
78027;SDS011;67235;45.638;11.714;2023-04-05T02:15:46;16.80;;;3.35;;
78027;SDS011;67235;45.638;11.714;2023-04-05T02:18:13;7.33;;;3.00;;
78027;SDS011;67235;45.638;11.714;2023-04-05T02:20:40;9.70;;;3.47;;
78027;SDS011;67235;45.638;11.714;2023-04-05T02:23:06;7.45;;;2.80;;
78027;SDS011;67235;45.638;11.714;2023-04-05T02:25:32;9.52;;;3.35;;
78027;SDS011;67235;45.638;11.714;2023-04-05T02:27:58;9.15;;;3.22;;
78027;SDS011;67235;45.638;11.714;2023-04-05T02:30:24;9.47;;;3.47;;
78027;SDS011;67235;45.638;11.714;2023-04-05T02:32:53;6.95;;;2.60;;
78027;SDS011;67235;45.638;11.714;2023-04-05T02:35:19;8.85;;;2.92;;
78027;SDS011;67235;45.638;11.714;2023-04-05T02:37:46;7.57;;;3.33;;
78027;SDS011;67235;45.638;11.714;2023-04-05T02:40:12;7.83;;;3.07;;
78027;SDS011;67235;45.638;11.714;2023-04-05T02:42:39;7.78;;;3.08;;
78027;SDS011;67235;45.638;11.714;2023-04-05T02:45:06;8.57;;;3.42;;
78027;SDS011;67235;45.638;11.714;2023-04-05T02:47:32;7.78;;;3.47;;
78027;SDS011;67235;45.638;11.714;2023-04-05T02:49:58;9.43;;;3.20;;
78027;SDS011;67235;45.638;11.714;2023-04-05T02:52:25;8.70;;;2.77;;
78027;SDS011;67235;45.638;11.714;2023-04-05T02:54:50;8.57;;;3.10;;
78027;SDS011;67235;45.638;11.714;2023-04-05T02:57:16;10.15;;;3.22;;
78027;SDS011;67235;45.638;11.714;2023-04-05T02:59:42;8.20;;;2.87;;
78027;SDS011;67235;45.638;11.714;2023-04-05T03:02:09;7.05;;;2.83;;
78027;SDS011;67235;45.638;11.714;2023-04-05T03:04:35;9.30;;;3.30;;
78027;SDS011;67235;45.638;11.714;2023-04-05T03:07:03;7.95;;;3.08;;
78027;SDS011;67235;45.638;11.714;2023-04-05T03:09:29;7.63;;;2.83;;
78027;SDS011;67235;45.638;11.714;2023-04-05T03:11:59;9.88;;;3.33;;
78027;SDS011;67235;45.638;11.714;2023-04-05T03:14:26;6.90;;;2.90;;
78027;SDS011;67235;45.638;11.714;2023-04-05T03:16:52;7.20;;;2.85;;
78027;SDS011;67235;45.638;11.714;2023-04-05T03:19:17;12.20;;;2.93;;
78027;SDS011;67235;45.638;11.714;2023-04-05T03:21:46;8.48;;;2.85;;
78027;SDS011;67235;45.638;11.714;2023-04-05T03:24:13;9.55;;;2.47;;
78027;SDS011;67235;45.638;11.714;2023-04-05T03:26:40;12.27;;;3.13;;
78027;SDS011;67235;45.638;11.714;2023-04-05T03:29:13;10.15;;;2.90;;
78027;SDS011;67235;45.638;11.714;2023-04-05T03:31:39;8.43;;;2.97;;
78027;SDS011;67235;45.638;11.714;2023-04-05T03:34:05;9.55;;;2.58;;
78027;SDS011;67235;45.638;11.714;2023-04-05T03:36:31;7.53;;;2.95;;
78027;SDS011;67235;45.638;11.714;2023-04-05T03:39:06;8.85;;;2.75;;
78027;SDS011;67235;45.638;11.714;2023-04-05T03:41:34;8.40;;;2.77;;
78027;SDS011;67235;45.638;11.714;2023-04-05T03:44:00;9.38;;;3.10;;
78027;SDS011;67235;45.638;11.714;2023-04-05T03:46:26;11.23;;;2.88;;
78027;SDS011;67235;45.638;11.714;2023-04-05T03:48:51;8.90;;;2.97;;
78027;SDS011;67235;45.638;11.714;2023-04-05T03:51:17;7.55;;;2.67;;
78027;SDS011;67235;45.638;11.714;2023-04-05T03:53:44;7.53;;;2.58;;
78027;SDS011;67235;45.638;11.714;2023-04-05T03:56:10;8.97;;;2.90;;
78027;SDS011;67235;45.638;11.714;2023-04-05T03:58:36;9.50;;;2.85;;
78027;SDS011;67235;45.638;11.714;2023-04-05T04:01:02;9.00;;;2.70;;
78027;SDS011;67235;45.638;11.714;2023-04-05T04:03:28;8.05;;;2.83;;
78027;SDS011;67235;45.638;11.714;2023-04-05T04:05:55;6.75;;;2.88;;
78027;SDS011;67235;45.638;11.714;2023-04-05T04:08:21;9.23;;;3.13;;
78027;SDS011;67235;45.638;11.714;2023-04-05T04:10:47;10.30;;;3.15;;
78027;SDS011;67235;45.638;11.714;2023-04-05T04:13:13;8.60;;;3.20;;
78027;SDS011;67235;45.638;11.714;2023-04-05T04:15:40;9.40;;;3.10;;
78027;SDS011;67235;45.638;11.714;2023-04-05T04:18:06;8.50;;;3.45;;
78027;SDS011;67235;45.638;11.714;2023-04-05T04:20:31;8.98;;;3.17;;
78027;SDS011;67235;45.638;11.714;2023-04-05T04:22:57;12.00;;;3.40;;
78027;SDS011;67235;45.638;11.714;2023-04-05T04:25:23;7.53;;;3.20;;
78027;SDS011;67235;45.638;11.714;2023-04-05T04:27:50;9.55;;;2.90;;
78027;SDS011;67235;45.638;11.714;2023-04-05T04:30:17;8.75;;;3.03;;
78027;SDS011;67235;45.638;11.714;2023-04-05T04:32:47;8.95;;;3.90;;
78027;SDS011;67235;45.638;11.714;2023-04-05T04:35:19;8.87;;;3.73;;
78027;SDS011;67235;45.638;11.714;2023-04-05T04:37:59;9.38;;;3.78;;
78027;SDS011;67235;45.638;11.714;2023-04-05T04:40:27;10.02;;;3.55;;
78027;SDS011;67235;45.638;11.714;2023-04-05T04:43:03;10.20;;;3.50;;
78027;SDS011;67235;45.638;11.714;2023-04-05T04:45:30;9.38;;;3.75;;
78027;SDS011;67235;45.638;11.714;2023-04-05T04:48:01;11.00;;;3.97;;
78027;SDS011;67235;45.638;11.714;2023-04-05T04:50:29;10.07;;;3.60;;
78027;SDS011;67235;45.638;11.714;2023-04-05T04:52:59;9.43;;;3.60;;
78027;SDS011;67235;45.638;11.714;2023-04-05T04:55:28;8.77;;;4.15;;
78027;SDS011;67235;45.638;11.714;2023-04-05T04:57:54;9.88;;;3.88;;
78027;SDS011;67235;45.638;11.714;2023-04-05T05:00:21;9.47;;;3.57;;
78027;SDS011;67235;45.638;11.714;2023-04-05T05:02:48;10.55;;;4.00;;
78027;SDS011;67235;45.638;11.714;2023-04-05T05:05:16;9.98;;;3.55;;
78027;SDS011;67235;45.638;11.714;2023-04-05T05:07:42;7.78;;;3.60;;
78027;SDS011;67235;45.638;11.714;2023-04-05T05:10:09;11.20;;;4.28;;
78027;SDS011;67235;45.638;11.714;2023-04-05T05:12:36;8.48;;;3.40;;
78027;SDS011;67235;45.638;11.714;2023-04-05T05:15:05;8.45;;;3.38;;
78027;SDS011;67235;45.638;11.714;2023-04-05T05:17:31;7.55;;;2.83;;
78027;SDS011;67235;45.638;11.714;2023-04-05T05:19:58;9.48;;;3.80;;
78027;SDS011;67235;45.638;11.714;2023-04-05T05:22:25;9.73;;;3.70;;
78027;SDS011;67235;45.638;11.714;2023-04-05T05:24:51;10.88;;;3.83;;
78027;SDS011;67235;45.638;11.714;2023-04-05T05:27:20;9.18;;;3.70;;
78027;SDS011;67235;45.638;11.714;2023-04-05T05:29:46;8.00;;;3.53;;
78027;SDS011;67235;45.638;11.714;2023-04-05T05:32:12;7.75;;;3.40;;
78027;SDS011;67235;45.638;11.714;2023-04-05T05:34:40;9.00;;;3.85;;
78027;SDS011;67235;45.638;11.714;2023-04-05T05:37:06;10.88;;;4.05;;
78027;SDS011;67235;45.638;11.714;2023-04-05T05:39:38;6.72;;;3.22;;
78027;SDS011;67235;45.638;11.714;2023-04-05T05:42:04;9.35;;;3.70;;
78027;SDS011;67235;45.638;11.714;2023-04-05T05:44:32;7.57;;;3.20;;
78027;SDS011;67235;45.638;11.714;2023-04-05T05:47:00;8.15;;;3.40;;
78027;SDS011;67235;45.638;11.714;2023-04-05T05:49:25;8.32;;;3.80;;
78027;SDS011;67235;45.638;11.714;2023-04-05T05:51:55;8.57;;;3.80;;
78027;SDS011;67235;45.638;11.714;2023-04-05T05:54:21;7.85;;;3.72;;
78027;SDS011;67235;45.638;11.714;2023-04-05T05:56:51;10.60;;;4.20;;
78027;SDS011;67235;45.638;11.714;2023-04-05T05:59:18;8.57;;;4.28;;
78027;SDS011;67235;45.638;11.714;2023-04-05T06:01:47;8.85;;;4.70;;
78027;SDS011;67235;45.638;11.714;2023-04-05T06:04:16;9.30;;;4.55;;
78027;SDS011;67235;45.638;11.714;2023-04-05T06:06:43;10.48;;;4.78;;
78027;SDS011;67235;45.638;11.714;2023-04-05T06:09:12;8.67;;;4.70;;
78027;SDS011;67235;45.638;11.714;2023-04-05T06:11:43;10.75;;;5.25;;
78027;SDS011;67235;45.638;11.714;2023-04-05T06:14:13;11.60;;;4.95;;
78027;SDS011;67235;45.638;11.714;2023-04-05T06:16:39;13.43;;;5.07;;
78027;SDS011;67235;45.638;11.714;2023-04-05T06:19:05;12.47;;;5.33;;
78027;SDS011;67235;45.638;11.714;2023-04-05T06:21:33;11.80;;;5.47;;
78027;SDS011;67235;45.638;11.714;2023-04-05T06:23:59;9.35;;;5.35;;
78027;SDS011;67235;45.638;11.714;2023-04-05T06:26:24;9.13;;;4.68;;
78027;SDS011;67235;45.638;11.714;2023-04-05T06:28:54;11.90;;;5.87;;
78027;SDS011;67235;45.638;11.714;2023-04-05T06:31:25;10.75;;;5.35;;
78027;SDS011;67235;45.638;11.714;2023-04-05T06:34:02;11.75;;;4.93;;
78027;SDS011;67235;45.638;11.714;2023-04-05T06:36:31;11.90;;;4.90;;
78027;SDS011;67235;45.638;11.714;2023-04-05T06:38:58;8.82;;;4.90;;
78027;SDS011;67235;45.638;11.714;2023-04-05T06:41:24;8.30;;;4.38;;
78027;SDS011;67235;45.638;11.714;2023-04-05T06:43:52;8.88;;;4.70;;
78027;SDS011;67235;45.638;11.714;2023-04-05T06:46:20;9.18;;;4.25;;
78027;SDS011;67235;45.638;11.714;2023-04-05T06:48:47;9.68;;;4.15;;
78027;SDS011;67235;45.638;11.714;2023-04-05T06:51:14;10.07;;;4.23;;
78027;SDS011;67235;45.638;11.714;2023-04-05T06:53:40;10.38;;;4.07;;
78027;SDS011;67235;45.638;11.714;2023-04-05T06:56:06;7.63;;;3.80;;
78027;SDS011;67235;45.638;11.714;2023-04-05T06:58:32;8.15;;;3.53;;
78027;SDS011;67235;45.638;11.714;2023-04-05T07:00:59;6.80;;;3.57;;
78027;SDS011;67235;45.638;11.714;2023-04-05T07:03:25;7.72;;;3.45;;
78027;SDS011;67235;45.638;11.714;2023-04-05T07:05:51;5.82;;;3.13;;
78027;SDS011;67235;45.638;11.714;2023-04-05T07:08:23;6.75;;;3.28;;
78027;SDS011;67235;45.638;11.714;2023-04-05T07:10:49;7.65;;;3.80;;
78027;SDS011;67235;45.638;11.714;2023-04-05T07:13:16;8.37;;;3.30;;
78027;SDS011;67235;45.638;11.714;2023-04-05T07:15:43;9.93;;;3.75;;
78027;SDS011;67235;45.638;11.714;2023-04-05T07:18:09;6.95;;;3.30;;
78027;SDS011;67235;45.638;11.714;2023-04-05T07:20:35;8.43;;;2.90;;
78027;SDS011;67235;45.638;11.714;2023-04-05T07:23:01;7.97;;;3.53;;
78027;SDS011;67235;45.638;11.714;2023-04-05T07:25:27;6.93;;;3.83;;
78027;SDS011;67235;45.638;11.714;2023-04-05T07:27:52;7.18;;;3.83;;
78027;SDS011;67235;45.638;11.714;2023-04-05T07:30:18;7.83;;;3.97;;
78027;SDS011;67235;45.638;11.714;2023-04-05T07:32:44;8.90;;;3.83;;
78027;SDS011;67235;45.638;11.714;2023-04-05T07:35:10;8.25;;;4.13;;
78027;SDS011;67235;45.638;11.714;2023-04-05T07:37:36;8.18;;;4.03;;
78027;SDS011;67235;45.638;11.714;2023-04-05T07:40:02;7.33;;;4.37;;
78027;SDS011;67235;45.638;11.714;2023-04-05T07:42:30;8.80;;;4.30;;
78027;SDS011;67235;45.638;11.714;2023-04-05T07:44:56;8.23;;;4.32;;
78027;SDS011;67235;45.638;11.714;2023-04-05T07:47:22;8.32;;;4.10;;
78027;SDS011;67235;45.638;11.714;2023-04-05T07:49:48;6.40;;;3.92;;
78027;SDS011;67235;45.638;11.714;2023-04-05T07:52:14;8.20;;;4.43;;
78027;SDS011;67235;45.638;11.714;2023-04-05T07:54:39;10.60;;;4.10;;
78027;SDS011;67235;45.638;11.714;2023-04-05T07:57:07;8.68;;;3.85;;
78027;SDS011;67235;45.638;11.714;2023-04-05T07:59:34;7.00;;;3.77;;
78027;SDS011;67235;45.638;11.714;2023-04-05T08:02:00;6.57;;;3.80;;
78027;SDS011;67235;45.638;11.714;2023-04-05T08:04:26;7.70;;;3.55;;
78027;SDS011;67235;45.638;11.714;2023-04-05T08:06:52;7.13;;;3.88;;
78027;SDS011;67235;45.638;11.714;2023-04-05T08:09:18;7.20;;;3.57;;
78027;SDS011;67235;45.638;11.714;2023-04-05T08:11:44;9.75;;;3.78;;
78027;SDS011;67235;45.638;11.714;2023-04-05T08:14:10;8.55;;;3.58;;
78027;SDS011;67235;45.638;11.714;2023-04-05T08:16:36;7.33;;;3.53;;
78027;SDS011;67235;45.638;11.714;2023-04-05T08:19:03;6.05;;;3.58;;
78027;SDS011;67235;45.638;11.714;2023-04-05T08:21:29;10.35;;;3.95;;
78027;SDS011;67235;45.638;11.714;2023-04-05T08:23:55;7.63;;;4.00;;
78027;SDS011;67235;45.638;11.714;2023-04-05T08:26:22;11.32;;;4.07;;
78027;SDS011;67235;45.638;11.714;2023-04-05T08:28:48;8.73;;;3.92;;
78027;SDS011;67235;45.638;11.714;2023-04-05T08:31:14;7.93;;;4.10;;
78027;SDS011;67235;45.638;11.714;2023-04-05T08:33:40;7.10;;;3.50;;
78027;SDS011;67235;45.638;11.714;2023-04-05T08:39:24;6.43;;;3.67;;
78027;SDS011;67235;45.638;11.714;2023-04-05T08:42:45;8.30;;;3.92;;
78027;SDS011;67235;45.638;11.714;2023-04-05T08:45:15;6.87;;;3.90;;
78027;SDS011;67235;45.638;11.714;2023-04-05T08:48:04;6.85;;;3.35;;
78027;SDS011;67235;45.638;11.714;2023-04-05T08:50:30;7.22;;;4.18;;
78027;SDS011;67235;45.638;11.714;2023-04-05T08:52:58;7.20;;;3.60;;
78027;SDS011;67235;45.638;11.714;2023-04-05T08:55:35;6.10;;;3.70;;
78027;SDS011;67235;45.638;11.714;2023-04-05T08:58:12;8.17;;;4.07;;
78027;SDS011;67235;45.638;11.714;2023-04-05T09:00:39;8.05;;;4.20;;
78027;SDS011;67235;45.638;11.714;2023-04-05T09:03:08;7.20;;;3.80;;
78027;SDS011;67235;45.638;11.714;2023-04-05T09:05:53;6.75;;;3.85;;
78027;SDS011;67235;45.638;11.714;2023-04-05T09:08:27;8.23;;;4.43;;
78027;SDS011;67235;45.638;11.714;2023-04-05T09:11:02;7.73;;;3.87;;
78027;SDS011;67235;45.638;11.714;2023-04-05T09:13:30;6.55;;;3.90;;
78027;SDS011;67235;45.638;11.714;2023-04-05T09:15:59;8.75;;;3.92;;
78027;SDS011;67235;45.638;11.714;2023-04-05T09:18:45;7.50;;;4.35;;
78027;SDS011;67235;45.638;11.714;2023-04-05T09:21:14;8.38;;;4.28;;
78027;SDS011;67235;45.638;11.714;2023-04-05T09:23:49;8.03;;;4.30;;
78027;SDS011;67235;45.638;11.714;2023-04-05T09:26:22;7.85;;;4.30;;
78027;SDS011;67235;45.638;11.714;2023-04-05T09:28:49;7.90;;;4.32;;
78027;SDS011;67235;45.638;11.714;2023-04-05T09:31:31;7.28;;;3.95;;
78027;SDS011;67235;45.638;11.714;2023-04-05T09:34:02;6.80;;;4.13;;
78027;SDS011;67235;45.638;11.714;2023-04-05T09:36:47;8.30;;;4.80;;
78027;SDS011;67235;45.638;11.714;2023-04-05T09:39:14;7.35;;;3.85;;
78027;SDS011;67235;45.638;11.714;2023-04-05T09:41:58;15.05;;;4.60;;
78027;SDS011;67235;45.638;11.714;2023-04-05T09:47:21;7.03;;;4.03;;
78027;SDS011;67235;45.638;11.714;2023-04-05T09:49:55;8.05;;;4.10;;
78027;SDS011;67235;45.638;11.714;2023-04-05T09:55:01;7.95;;;4.38;;
78027;SDS011;67235;45.638;11.714;2023-04-05T09:57:34;9.38;;;4.38;;
78027;SDS011;67235;45.638;11.714;2023-04-05T10:00:02;7.85;;;4.35;;
78027;SDS011;67235;45.638;11.714;2023-04-05T10:02:36;8.45;;;4.10;;
78027;SDS011;67235;45.638;11.714;2023-04-05T10:05:09;8.32;;;4.35;;
78027;SDS011;67235;45.638;11.714;2023-04-05T10:07:45;9.38;;;4.50;;
78027;SDS011;67235;45.638;11.714;2023-04-05T10:10:14;10.20;;;4.80;;
78027;SDS011;67235;45.638;11.714;2023-04-05T10:12:49;10.27;;;4.38;;
78027;SDS011;67235;45.638;11.714;2023-04-05T10:15:15;9.30;;;4.68;;
78027;SDS011;67235;45.638;11.714;2023-04-05T10:17:52;9.07;;;4.60;;
78027;SDS011;67235;45.638;11.714;2023-04-05T10:20:27;7.28;;;4.25;;
78027;SDS011;67235;45.638;11.714;2023-04-05T10:23:07;7.07;;;4.40;;
78027;SDS011;67235;45.638;11.714;2023-04-05T10:25:49;8.75;;;4.57;;
78027;SDS011;67235;45.638;11.714;2023-04-05T10:30:45;10.57;;;5.38;;
78027;SDS011;67235;45.638;11.714;2023-04-05T10:33:19;7.30;;;4.63;;
78027;SDS011;67235;45.638;11.714;2023-04-05T10:41:16;89.95;;;9.95;;
78027;SDS011;67235;45.638;11.714;2023-04-05T10:43:42;9.98;;;4.97;;
78027;SDS011;67235;45.638;11.714;2023-04-05T10:46:10;9.57;;;5.13;;
78027;SDS011;67235;45.638;11.714;2023-04-05T10:48:57;8.55;;;4.68;;
78027;SDS011;67235;45.638;11.714;2023-04-05T10:51:28;8.85;;;4.88;;
78027;SDS011;67235;45.638;11.714;2023-04-05T10:53:55;9.73;;;4.93;;
78027;SDS011;67235;45.638;11.714;2023-04-05T10:56:37;9.25;;;4.85;;
78027;SDS011;67235;45.638;11.714;2023-04-05T10:59:14;10.77;;;5.28;;
78027;SDS011;67235;45.638;11.714;2023-04-05T11:01:44;8.40;;;5.00;;
78027;SDS011;67235;45.638;11.714;2023-04-05T11:04:11;7.20;;;4.80;;
78027;SDS011;67235;45.638;11.714;2023-04-05T11:10:00;10.55;;;5.15;;
78027;SDS011;67235;45.638;11.714;2023-04-05T11:18:20;8.70;;;5.10;;
78027;SDS011;67235;45.638;11.714;2023-04-05T11:23:23;10.25;;;5.25;;
78027;SDS011;67235;45.638;11.714;2023-04-05T11:25:53;9.07;;;5.68;;
78027;SDS011;67235;45.638;11.714;2023-04-05T11:30:55;8.88;;;5.30;;
78027;SDS011;67235;45.638;11.714;2023-04-05T11:33:52;10.98;;;5.15;;
78027;SDS011;67235;45.638;11.714;2023-04-05T11:41:44;9.23;;;5.70;;
78027;SDS011;67235;45.638;11.714;2023-04-05T11:44:15;8.25;;;5.40;;
78027;SDS011;67235;45.638;11.714;2023-04-05T11:46:48;8.85;;;5.57;;
78027;SDS011;67235;45.638;11.714;2023-04-05T11:49:33;10.50;;;5.35;;
78027;SDS011;67235;45.638;11.714;2023-04-05T11:52:08;8.48;;;4.68;;
78027;SDS011;67235;45.638;11.714;2023-04-05T11:54:48;9.88;;;5.10;;
78027;SDS011;67235;45.638;11.714;2023-04-05T12:00:26;9.80;;;5.60;;
78027;SDS011;67235;45.638;11.714;2023-04-05T12:17:06;10.88;;;5.72;;
78027;SDS011;67235;45.638;11.714;2023-04-05T12:20:06;8.07;;;4.60;;
78027;SDS011;67235;45.638;11.714;2023-04-05T12:22:47;10.27;;;5.45;;
78027;SDS011;67235;45.638;11.714;2023-04-05T12:31:36;8.93;;;5.20;;
78027;SDS011;67235;45.638;11.714;2023-04-05T12:34:13;8.15;;;4.75;;
78027;SDS011;67235;45.638;11.714;2023-04-05T12:37:00;7.57;;;4.05;;
78027;SDS011;67235;45.638;11.714;2023-04-05T12:39:34;10.98;;;4.55;;
78027;SDS011;67235;45.638;11.714;2023-04-05T12:42:03;8.52;;;4.35;;
78027;SDS011;67235;45.638;11.714;2023-04-05T12:44:35;7.03;;;4.25;;
78027;SDS011;67235;45.638;11.714;2023-04-05T12:47:15;10.30;;;4.82;;
78027;SDS011;67235;45.638;11.714;2023-04-05T12:50:12;10.43;;;5.18;;
78027;SDS011;67235;45.638;11.714;2023-04-05T12:52:51;10.88;;;4.75;;
78027;SDS011;67235;45.638;11.714;2023-04-05T12:58:09;9.07;;;4.55;;
78027;SDS011;67235;45.638;11.714;2023-04-05T13:00:42;8.75;;;4.63;;
78027;SDS011;67235;45.638;11.714;2023-04-05T13:03:30;9.10;;;4.63;;
78027;SDS011;67235;45.638;11.714;2023-04-05T13:09:55;12.25;;;6.28;;
78027;SDS011;67235;45.638;11.714;2023-04-05T13:12:35;8.38;;;5.25;;
78027;SDS011;67235;45.638;11.714;2023-04-05T13:15:04;11.77;;;5.47;;
78027;SDS011;67235;45.638;11.714;2023-04-05T13:17:39;7.88;;;5.18;;
78027;SDS011;67235;45.638;11.714;2023-04-05T13:20:48;9.57;;;5.43;;
78027;SDS011;67235;45.638;11.714;2023-04-05T13:23:21;8.77;;;5.53;;
78027;SDS011;67235;45.638;11.714;2023-04-05T13:29:04;10.45;;;5.32;;
78027;SDS011;67235;45.638;11.714;2023-04-05T13:34:50;9.35;;;5.13;;
78027;SDS011;67235;45.638;11.714;2023-04-05T13:37:35;8.57;;;4.80;;
78027;SDS011;67235;45.638;11.714;2023-04-05T13:40:27;9.75;;;4.70;;
78027;SDS011;67235;45.638;11.714;2023-04-05T13:43:19;16.30;;;4.88;;
78027;SDS011;67235;45.638;11.714;2023-04-05T13:45:45;7.85;;;4.88;;
78027;SDS011;67235;45.638;11.714;2023-04-05T13:48:11;8.98;;;4.95;;
78027;SDS011;67235;45.638;11.714;2023-04-05T13:50:37;11.27;;;5.97;;
78027;SDS011;67235;45.638;11.714;2023-04-05T13:53:03;8.40;;;5.33;;
78027;SDS011;67235;45.638;11.714;2023-04-05T13:55:29;8.75;;;5.30;;
78027;SDS011;67235;45.638;11.714;2023-04-05T13:57:55;9.50;;;5.38;;
78027;SDS011;67235;45.638;11.714;2023-04-05T14:00:21;9.55;;;5.32;;
78027;SDS011;67235;45.638;11.714;2023-04-05T14:02:47;9.20;;;5.50;;
78027;SDS011;67235;45.638;11.714;2023-04-05T14:05:16;9.05;;;4.68;;
78027;SDS011;67235;45.638;11.714;2023-04-05T14:07:42;7.95;;;4.80;;
78027;SDS011;67235;45.638;11.714;2023-04-05T14:10:09;10.30;;;4.88;;
78027;SDS011;67235;45.638;11.714;2023-04-05T14:12:35;8.38;;;5.10;;
78027;SDS011;67235;45.638;11.714;2023-04-05T14:15:01;8.20;;;4.83;;
78027;SDS011;67235;45.638;11.714;2023-04-05T14:17:27;11.38;;;5.25;;
78027;SDS011;67235;45.638;11.714;2023-04-05T14:19:53;8.13;;;5.28;;
78027;SDS011;67235;45.638;11.714;2023-04-05T14:22:19;11.17;;;5.03;;
78027;SDS011;67235;45.638;11.714;2023-04-05T14:24:45;8.93;;;5.10;;
78027;SDS011;67235;45.638;11.714;2023-04-05T14:27:11;8.88;;;4.93;;
78027;SDS011;67235;45.638;11.714;2023-04-05T14:29:37;8.40;;;5.10;;
78027;SDS011;67235;45.638;11.714;2023-04-05T14:32:03;10.18;;;5.03;;
78027;SDS011;67235;45.638;11.714;2023-04-05T14:34:29;10.27;;;5.25;;
78027;SDS011;67235;45.638;11.714;2023-04-05T14:36:55;9.98;;;4.80;;
78027;SDS011;67235;45.638;11.714;2023-04-05T14:39:22;9.10;;;5.50;;
78027;SDS011;67235;45.638;11.714;2023-04-05T14:41:48;10.40;;;5.13;;
78027;SDS011;67235;45.638;11.714;2023-04-05T14:44:16;9.20;;;4.88;;
78027;SDS011;67235;45.638;11.714;2023-04-05T14:46:42;10.70;;;5.78;;
78027;SDS011;67235;45.638;11.714;2023-04-05T14:49:08;9.10;;;5.50;;
78027;SDS011;67235;45.638;11.714;2023-04-05T14:51:34;8.43;;;4.97;;
78027;SDS011;67235;45.638;11.714;2023-04-05T14:54:00;9.10;;;5.45;;
78027;SDS011;67235;45.638;11.714;2023-04-05T14:56:25;9.70;;;5.33;;
78027;SDS011;67235;45.638;11.714;2023-04-05T14:58:51;10.60;;;5.20;;
78027;SDS011;67235;45.638;11.714;2023-04-05T15:01:17;8.80;;;4.93;;
78027;SDS011;67235;45.638;11.714;2023-04-05T15:03:43;9.47;;;4.87;;
78027;SDS011;67235;45.638;11.714;2023-04-05T15:06:09;10.13;;;5.15;;
78027;SDS011;67235;45.638;11.714;2023-04-05T15:08:35;10.93;;;5.43;;
78027;SDS011;67235;45.638;11.714;2023-04-05T15:11:01;10.13;;;5.53;;
78027;SDS011;67235;45.638;11.714;2023-04-05T15:13:28;8.98;;;5.00;;
78027;SDS011;67235;45.638;11.714;2023-04-05T15:15:54;8.75;;;4.93;;
78027;SDS011;67235;45.638;11.714;2023-04-05T15:18:20;12.47;;;5.13;;
78027;SDS011;67235;45.638;11.714;2023-04-05T15:20:52;11.98;;;4.88;;
78027;SDS011;67235;45.638;11.714;2023-04-05T15:23:19;12.05;;;5.30;;
78027;SDS011;67235;45.638;11.714;2023-04-05T15:25:46;12.18;;;5.40;;
78027;SDS011;67235;45.638;11.714;2023-04-05T15:28:12;9.18;;;4.88;;
78027;SDS011;67235;45.638;11.714;2023-04-05T15:30:38;10.75;;;4.53;;
78027;SDS011;67235;45.638;11.714;2023-04-05T15:33:04;8.77;;;3.15;;
78027;SDS011;67235;45.638;11.714;2023-04-05T15:35:30;8.57;;;3.72;;
78027;SDS011;67235;45.638;11.714;2023-04-05T15:37:58;8.50;;;4.20;;
78027;SDS011;67235;45.638;11.714;2023-04-05T15:40:25;8.13;;;3.90;;
78027;SDS011;67235;45.638;11.714;2023-04-05T15:42:53;6.85;;;3.70;;
78027;SDS011;67235;45.638;11.714;2023-04-05T15:45:36;7.40;;;3.65;;
78027;SDS011;67235;45.638;11.714;2023-04-05T15:48:02;9.63;;;4.17;;
78027;SDS011;67235;45.638;11.714;2023-04-05T15:50:28;8.13;;;3.35;;
78027;SDS011;67235;45.638;11.714;2023-04-05T15:52:54;7.13;;;3.65;;
78027;SDS011;67235;45.638;11.714;2023-04-05T15:55:20;7.32;;;3.72;;
78027;SDS011;67235;45.638;11.714;2023-04-05T15:57:46;7.60;;;3.90;;
78027;SDS011;67235;45.638;11.714;2023-04-05T16:00:17;10.30;;;4.30;;
78027;SDS011;67235;45.638;11.714;2023-04-05T16:02:44;6.72;;;3.40;;
78027;SDS011;67235;45.638;11.714;2023-04-05T16:05:10;6.88;;;3.42;;
78027;SDS011;67235;45.638;11.714;2023-04-05T16:07:36;7.70;;;3.53;;